sensor_id;sensor_type;location;lat;lon;timestamp;P1;durP1;ratioP1;P2;durP2;ratioP2
19219;SDS011;9744;49.364;7.484;2022-11-24T00:01:03;33.42;;;5.72;;
19219;SDS011;9744;49.364;7.484;2022-11-24T00:03:31;34.65;;;6.40;;
19219;SDS011;9744;49.364;7.484;2022-11-24T00:06:01;40.28;;;6.28;;
19219;SDS011;9744;49.364;7.484;2022-11-24T00:08:29;25.88;;;6.30;;
19219;SDS011;9744;49.364;7.484;2022-11-24T00:11:02;30.23;;;6.75;;
19219;SDS011;9744;49.364;7.484;2022-11-24T00:13:31;33.78;;;8.50;;
19219;SDS011;9744;49.364;7.484;2022-11-24T00:16:05;30.38;;;8.43;;
19219;SDS011;9744;49.364;7.484;2022-11-24T00:18:33;43.65;;;8.98;;
19219;SDS011;9744;49.364;7.484;2022-11-24T00:21:01;44.38;;;9.52;;
19219;SDS011;9744;49.364;7.484;2022-11-24T00:23:28;36.92;;;9.50;;
19219;SDS011;9744;49.364;7.484;2022-11-24T00:26:02;34.88;;;10.05;;
19219;SDS011;9744;49.364;7.484;2022-11-24T00:28:31;34.85;;;11.30;;
19219;SDS011;9744;49.364;7.484;2022-11-24T00:30:58;35.97;;;11.23;;
19219;SDS011;9744;49.364;7.484;2022-11-24T00:33:26;38.67;;;11.82;;
19219;SDS011;9744;49.364;7.484;2022-11-24T00:35:54;41.13;;;11.43;;
19219;SDS011;9744;49.364;7.484;2022-11-24T00:38:21;41.42;;;11.10;;
19219;SDS011;9744;49.364;7.484;2022-11-24T00:40:48;33.22;;;10.70;;
19219;SDS011;9744;49.364;7.484;2022-11-24T00:43:17;41.17;;;11.88;;
19219;SDS011;9744;49.364;7.484;2022-11-24T00:45:44;42.83;;;12.27;;
19219;SDS011;9744;49.364;7.484;2022-11-24T00:48:12;34.60;;;11.30;;
19219;SDS011;9744;49.364;7.484;2022-11-24T00:50:39;37.20;;;10.98;;
19219;SDS011;9744;49.364;7.484;2022-11-24T00:53:06;56.08;;;13.07;;
19219;SDS011;9744;49.364;7.484;2022-11-24T00:55:33;42.85;;;12.57;;
19219;SDS011;9744;49.364;7.484;2022-11-24T00:58:00;32.35;;;10.20;;
19219;SDS011;9744;49.364;7.484;2022-11-24T01:00:29;38.58;;;11.20;;
19219;SDS011;9744;49.364;7.484;2022-11-24T01:02:56;32.35;;;10.63;;
19219;SDS011;9744;49.364;7.484;2022-11-24T01:05:24;40.13;;;13.50;;
19219;SDS011;9744;49.364;7.484;2022-11-24T01:07:51;37.10;;;11.13;;
19219;SDS011;9744;49.364;7.484;2022-11-24T01:10:18;35.85;;;10.50;;
19219;SDS011;9744;49.364;7.484;2022-11-24T01:12:45;33.55;;;10.20;;
19219;SDS011;9744;49.364;7.484;2022-11-24T01:15:13;40.83;;;9.20;;
19219;SDS011;9744;49.364;7.484;2022-11-24T01:17:41;38.47;;;11.18;;
19219;SDS011;9744;49.364;7.484;2022-11-24T01:20:09;28.95;;;9.20;;
19219;SDS011;9744;49.364;7.484;2022-11-24T01:22:37;28.02;;;8.63;;
19219;SDS011;9744;49.364;7.484;2022-11-24T01:25:06;34.25;;;9.45;;
19219;SDS011;9744;49.364;7.484;2022-11-24T01:27:34;34.78;;;9.85;;
19219;SDS011;9744;49.364;7.484;2022-11-24T01:30:01;31.55;;;8.45;;
19219;SDS011;9744;49.364;7.484;2022-11-24T01:32:29;29.17;;;7.97;;
19219;SDS011;9744;49.364;7.484;2022-11-24T01:34:58;41.38;;;9.60;;
19219;SDS011;9744;49.364;7.484;2022-11-24T01:37:25;29.27;;;7.82;;
19219;SDS011;9744;49.364;7.484;2022-11-24T01:39:53;36.05;;;7.90;;
19219;SDS011;9744;49.364;7.484;2022-11-24T01:42:20;28.35;;;7.45;;
19219;SDS011;9744;49.364;7.484;2022-11-24T01:44:48;29.88;;;7.82;;
19219;SDS011;9744;49.364;7.484;2022-11-24T01:47:30;28.75;;;7.68;;
19219;SDS011;9744;49.364;7.484;2022-11-24T01:50:04;29.60;;;7.32;;
19219;SDS011;9744;49.364;7.484;2022-11-24T01:52:35;34.72;;;8.93;;
19219;SDS011;9744;49.364;7.484;2022-11-24T01:55:08;34.63;;;8.70;;
19219;SDS011;9744;49.364;7.484;2022-11-24T01:57:40;32.33;;;9.27;;
19219;SDS011;9744;49.364;7.484;2022-11-24T02:00:10;42.97;;;9.70;;
19219;SDS011;9744;49.364;7.484;2022-11-24T02:02:40;32.90;;;8.57;;
19219;SDS011;9744;49.364;7.484;2022-11-24T02:05:11;40.70;;;9.65;;
19219;SDS011;9744;49.364;7.484;2022-11-24T02:07:43;46.28;;;11.30;;
19219;SDS011;9744;49.364;7.484;2022-11-24T02:10:12;50.55;;;10.07;;
19219;SDS011;9744;49.364;7.484;2022-11-24T02:12:42;38.53;;;10.80;;
19219;SDS011;9744;49.364;7.484;2022-11-24T02:15:11;48.33;;;9.82;;
19219;SDS011;9744;49.364;7.484;2022-11-24T02:17:40;39.42;;;8.82;;
19219;SDS011;9744;49.364;7.484;2022-11-24T02:20:10;38.70;;;9.60;;
19219;SDS011;9744;49.364;7.484;2022-11-24T02:22:39;35.90;;;9.20;;
19219;SDS011;9744;49.364;7.484;2022-11-24T02:25:12;48.13;;;11.15;;
19219;SDS011;9744;49.364;7.484;2022-11-24T02:27:50;45.13;;;10.43;;
19219;SDS011;9744;49.364;7.484;2022-11-24T02:30:18;39.53;;;9.57;;
19219;SDS011;9744;49.364;7.484;2022-11-24T02:32:46;42.97;;;9.75;;
19219;SDS011;9744;49.364;7.484;2022-11-24T02:35:14;32.40;;;10.00;;
19219;SDS011;9744;49.364;7.484;2022-11-24T02:37:41;41.47;;;9.38;;
19219;SDS011;9744;49.364;7.484;2022-11-24T02:40:09;35.33;;;9.70;;
19219;SDS011;9744;49.364;7.484;2022-11-24T02:42:37;40.08;;;9.45;;
19219;SDS011;9744;49.364;7.484;2022-11-24T02:45:11;41.03;;;9.05;;
19219;SDS011;9744;49.364;7.484;2022-11-24T02:47:40;37.40;;;8.48;;
19219;SDS011;9744;49.364;7.484;2022-11-24T02:50:07;37.67;;;8.52;;
19219;SDS011;9744;49.364;7.484;2022-11-24T02:52:35;38.55;;;8.77;;
19219;SDS011;9744;49.364;7.484;2022-11-24T02:55:02;40.15;;;8.45;;
19219;SDS011;9744;49.364;7.484;2022-11-24T02:57:29;42.83;;;7.95;;
19219;SDS011;9744;49.364;7.484;2022-11-24T02:59:57;47.75;;;9.10;;
19219;SDS011;9744;49.364;7.484;2022-11-24T03:02:25;44.28;;;8.23;;
19219;SDS011;9744;49.364;7.484;2022-11-24T03:04:52;40.97;;;8.07;;
19219;SDS011;9744;49.364;7.484;2022-11-24T03:07:19;39.60;;;7.55;;
19219;SDS011;9744;49.364;7.484;2022-11-24T03:09:47;30.23;;;8.18;;
19219;SDS011;9744;49.364;7.484;2022-11-24T03:12:14;55.58;;;7.85;;
19219;SDS011;9744;49.364;7.484;2022-11-24T03:14:41;38.05;;;7.28;;
19219;SDS011;9744;49.364;7.484;2022-11-24T03:17:08;43.00;;;7.50;;
19219;SDS011;9744;49.364;7.484;2022-11-24T03:19:37;44.42;;;7.85;;
19219;SDS011;9744;49.364;7.484;2022-11-24T03:22:04;39.72;;;7.30;;
19219;SDS011;9744;49.364;7.484;2022-11-24T03:24:31;47.13;;;8.60;;
19219;SDS011;9744;49.364;7.484;2022-11-24T03:26:58;37.97;;;8.90;;
19219;SDS011;9744;49.364;7.484;2022-11-24T03:29:26;41.97;;;8.57;;
19219;SDS011;9744;49.364;7.484;2022-11-24T03:31:53;41.58;;;8.80;;
19219;SDS011;9744;49.364;7.484;2022-11-24T03:34:20;53.83;;;9.95;;
19219;SDS011;9744;49.364;7.484;2022-11-24T03:36:48;37.15;;;9.02;;
19219;SDS011;9744;49.364;7.484;2022-11-24T03:39:16;36.80;;;10.32;;
19219;SDS011;9744;49.364;7.484;2022-11-24T03:41:43;48.08;;;10.35;;
19219;SDS011;9744;49.364;7.484;2022-11-24T03:44:10;59.95;;;11.13;;
19219;SDS011;9744;49.364;7.484;2022-11-24T03:46:37;34.53;;;9.02;;
19219;SDS011;9744;49.364;7.484;2022-11-24T03:49:04;34.95;;;8.45;;
19219;SDS011;9744;49.364;7.484;2022-11-24T03:51:31;43.97;;;10.68;;
19219;SDS011;9744;49.364;7.484;2022-11-24T03:54:00;38.38;;;8.63;;
19219;SDS011;9744;49.364;7.484;2022-11-24T03:56:27;35.97;;;8.98;;
19219;SDS011;9744;49.364;7.484;2022-11-24T03:58:54;35.30;;;7.70;;
19219;SDS011;9744;49.364;7.484;2022-11-24T04:01:21;50.80;;;9.05;;
19219;SDS011;9744;49.364;7.484;2022-11-24T04:03:48;45.92;;;9.10;;
19219;SDS011;9744;49.364;7.484;2022-11-24T04:06:15;47.00;;;7.90;;
19219;SDS011;9744;49.364;7.484;2022-11-24T04:08:43;41.05;;;8.27;;
19219;SDS011;9744;49.364;7.484;2022-11-24T04:11:11;57.15;;;9.00;;
19219;SDS011;9744;49.364;7.484;2022-11-24T04:13:58;50.85;;;9.13;;
19219;SDS011;9744;49.364;7.484;2022-11-24T04:16:25;54.45;;;7.38;;
19219;SDS011;9744;49.364;7.484;2022-11-24T04:18:52;60.30;;;8.07;;
19219;SDS011;9744;49.364;7.484;2022-11-24T04:21:19;43.15;;;6.82;;
19219;SDS011;9744;49.364;7.484;2022-11-24T04:23:46;34.00;;;5.60;;
19219;SDS011;9744;49.364;7.484;2022-11-24T04:26:15;52.95;;;6.47;;
19219;SDS011;9744;49.364;7.484;2022-11-24T04:28:42;47.53;;;7.18;;
19219;SDS011;9744;49.364;7.484;2022-11-24T04:31:09;32.25;;;6.45;;
19219;SDS011;9744;49.364;7.484;2022-11-24T04:33:36;44.10;;;6.22;;
19219;SDS011;9744;49.364;7.484;2022-11-24T04:36:04;42.53;;;5.80;;
19219;SDS011;9744;49.364;7.484;2022-11-24T04:38:32;46.67;;;6.13;;
19219;SDS011;9744;49.364;7.484;2022-11-24T04:40:59;49.97;;;6.30;;
19219;SDS011;9744;49.364;7.484;2022-11-24T04:43:28;42.70;;;7.68;;
19219;SDS011;9744;49.364;7.484;2022-11-24T04:45:58;32.42;;;6.18;;
19219;SDS011;9744;49.364;7.484;2022-11-24T04:48:26;41.50;;;6.22;;
19219;SDS011;9744;49.364;7.484;2022-11-24T04:50:53;41.30;;;6.22;;
19219;SDS011;9744;49.364;7.484;2022-11-24T04:53:27;42.08;;;6.75;;
19219;SDS011;9744;49.364;7.484;2022-11-24T04:55:54;47.50;;;6.90;;
19219;SDS011;9744;49.364;7.484;2022-11-24T04:58:21;41.58;;;8.32;;
19219;SDS011;9744;49.364;7.484;2022-11-24T05:00:50;47.22;;;6.50;;
19219;SDS011;9744;49.364;7.484;2022-11-24T05:03:17;48.70;;;6.95;;
19219;SDS011;9744;49.364;7.484;2022-11-24T05:05:44;41.42;;;7.07;;
19219;SDS011;9744;49.364;7.484;2022-11-24T05:08:11;44.95;;;7.05;;
19219;SDS011;9744;49.364;7.484;2022-11-24T05:10:38;65.88;;;8.98;;
19219;SDS011;9744;49.364;7.484;2022-11-24T05:13:08;50.53;;;7.00;;
19219;SDS011;9744;49.364;7.484;2022-11-24T05:15:37;48.97;;;7.20;;
19219;SDS011;9744;49.364;7.484;2022-11-24T05:18:06;50.35;;;7.32;;
19219;SDS011;9744;49.364;7.484;2022-11-24T05:20:34;59.78;;;7.82;;
19219;SDS011;9744;49.364;7.484;2022-11-24T05:23:02;46.65;;;6.65;;
19219;SDS011;9744;49.364;7.484;2022-11-24T05:25:30;41.17;;;8.05;;
19219;SDS011;9744;49.364;7.484;2022-11-24T05:27:58;43.22;;;5.63;;
19219;SDS011;9744;49.364;7.484;2022-11-24T05:30:26;41.83;;;6.15;;
19219;SDS011;9744;49.364;7.484;2022-11-24T05:32:53;33.15;;;5.28;;
19219;SDS011;9744;49.364;7.484;2022-11-24T05:35:22;44.38;;;6.10;;
19219;SDS011;9744;49.364;7.484;2022-11-24T05:37:49;44.80;;;6.47;;
19219;SDS011;9744;49.364;7.484;2022-11-24T05:40:17;40.28;;;5.18;;
19219;SDS011;9744;49.364;7.484;2022-11-24T05:42:44;42.80;;;5.00;;
19219;SDS011;9744;49.364;7.484;2022-11-24T05:45:12;46.05;;;6.45;;
19219;SDS011;9744;49.364;7.484;2022-11-24T05:47:41;38.85;;;7.50;;
19219;SDS011;9744;49.364;7.484;2022-11-24T05:50:09;42.92;;;7.35;;
19219;SDS011;9744;49.364;7.484;2022-11-24T05:52:38;39.00;;;6.65;;
19219;SDS011;9744;49.364;7.484;2022-11-24T05:55:06;37.92;;;5.40;;
19219;SDS011;9744;49.364;7.484;2022-11-24T05:57:34;39.53;;;6.97;;
19219;SDS011;9744;49.364;7.484;2022-11-24T06:00:02;58.17;;;8.30;;
19219;SDS011;9744;49.364;7.484;2022-11-24T06:02:37;40.60;;;6.90;;
19219;SDS011;9744;49.364;7.484;2022-11-24T06:05:05;49.97;;;7.65;;
19219;SDS011;9744;49.364;7.484;2022-11-24T06:07:32;42.38;;;8.18;;
19219;SDS011;9744;49.364;7.484;2022-11-24T06:10:01;45.72;;;7.72;;
19219;SDS011;9744;49.364;7.484;2022-11-24T06:12:29;36.58;;;6.30;;
19219;SDS011;9744;49.364;7.484;2022-11-24T06:14:56;48.90;;;7.03;;
19219;SDS011;9744;49.364;7.484;2022-11-24T06:17:23;47.45;;;7.15;;
19219;SDS011;9744;49.364;7.484;2022-11-24T06:19:50;47.15;;;6.93;;
19219;SDS011;9744;49.364;7.484;2022-11-24T06:22:18;35.65;;;6.68;;
19219;SDS011;9744;49.364;7.484;2022-11-24T06:24:45;38.90;;;7.03;;
19219;SDS011;9744;49.364;7.484;2022-11-24T06:27:16;45.45;;;6.30;;
19219;SDS011;9744;49.364;7.484;2022-11-24T06:29:43;41.75;;;6.40;;
19219;SDS011;9744;49.364;7.484;2022-11-24T06:32:10;44.85;;;8.40;;
19219;SDS011;9744;49.364;7.484;2022-11-24T06:34:38;43.53;;;6.68;;
19219;SDS011;9744;49.364;7.484;2022-11-24T06:37:05;43.65;;;6.63;;
19219;SDS011;9744;49.364;7.484;2022-11-24T06:39:32;43.33;;;6.68;;
19219;SDS011;9744;49.364;7.484;2022-11-24T06:42:00;36.70;;;6.30;;
19219;SDS011;9744;49.364;7.484;2022-11-24T06:44:28;39.08;;;6.00;;
19219;SDS011;9744;49.364;7.484;2022-11-24T06:46:55;51.15;;;6.82;;
19219;SDS011;9744;49.364;7.484;2022-11-24T06:49:23;40.63;;;6.28;;
19219;SDS011;9744;49.364;7.484;2022-11-24T06:51:50;48.45;;;6.85;;
19219;SDS011;9744;49.364;7.484;2022-11-24T06:54:19;38.85;;;7.72;;
19219;SDS011;9744;49.364;7.484;2022-11-24T06:56:46;42.15;;;8.35;;
19219;SDS011;9744;49.364;7.484;2022-11-24T06:59:15;33.80;;;5.03;;
19219;SDS011;9744;49.364;7.484;2022-11-24T07:01:45;48.53;;;7.30;;
19219;SDS011;9744;49.364;7.484;2022-11-24T07:04:13;42.38;;;5.70;;
19219;SDS011;9744;49.364;7.484;2022-11-24T07:06:40;36.83;;;6.47;;
19219;SDS011;9744;49.364;7.484;2022-11-24T07:09:09;37.42;;;6.13;;
19219;SDS011;9744;49.364;7.484;2022-11-24T07:11:37;37.15;;;6.25;;
19219;SDS011;9744;49.364;7.484;2022-11-24T07:14:05;42.35;;;7.63;;
19219;SDS011;9744;49.364;7.484;2022-11-24T07:16:33;34.95;;;7.10;;
19219;SDS011;9744;49.364;7.484;2022-11-24T07:19:01;48.65;;;6.43;;
19219;SDS011;9744;49.364;7.484;2022-11-24T07:21:28;42.00;;;6.78;;
19219;SDS011;9744;49.364;7.484;2022-11-24T07:23:56;38.83;;;6.25;;
19219;SDS011;9744;49.364;7.484;2022-11-24T07:26:24;48.83;;;6.57;;
19219;SDS011;9744;49.364;7.484;2022-11-24T07:28:52;38.58;;;5.70;;
19219;SDS011;9744;49.364;7.484;2022-11-24T07:31:19;35.13;;;5.22;;
19219;SDS011;9744;49.364;7.484;2022-11-24T07:33:49;46.97;;;6.55;;
19219;SDS011;9744;49.364;7.484;2022-11-24T07:36:19;39.08;;;7.10;;
19219;SDS011;9744;49.364;7.484;2022-11-24T07:38:47;40.28;;;5.28;;
19219;SDS011;9744;49.364;7.484;2022-11-24T07:41:15;34.38;;;9.50;;
19219;SDS011;9744;49.364;7.484;2022-11-24T07:43:43;35.72;;;4.63;;
19219;SDS011;9744;49.364;7.484;2022-11-24T07:46:12;44.17;;;5.30;;
19219;SDS011;9744;49.364;7.484;2022-11-24T07:48:40;30.50;;;5.25;;
19219;SDS011;9744;49.364;7.484;2022-11-24T07:51:08;35.67;;;6.03;;
19219;SDS011;9744;49.364;7.484;2022-11-24T07:53:36;29.10;;;4.97;;
19219;SDS011;9744;49.364;7.484;2022-11-24T07:56:04;30.30;;;4.57;;
19219;SDS011;9744;49.364;7.484;2022-11-24T07:58:33;41.80;;;4.80;;
19219;SDS011;9744;49.364;7.484;2022-11-24T08:01:07;37.85;;;4.93;;
19219;SDS011;9744;49.364;7.484;2022-11-24T08:03:36;39.38;;;5.57;;
19219;SDS011;9744;49.364;7.484;2022-11-24T08:06:03;29.23;;;5.65;;
19219;SDS011;9744;49.364;7.484;2022-11-24T08:08:30;44.28;;;5.43;;
19219;SDS011;9744;49.364;7.484;2022-11-24T08:11:03;25.70;;;5.45;;
19219;SDS011;9744;49.364;7.484;2022-11-24T08:13:32;36.58;;;4.72;;
19219;SDS011;9744;49.364;7.484;2022-11-24T08:16:04;33.90;;;4.28;;
19219;SDS011;9744;49.364;7.484;2022-11-24T08:18:33;39.63;;;6.07;;
19219;SDS011;9744;49.364;7.484;2022-11-24T08:21:00;27.30;;;5.78;;
19219;SDS011;9744;49.364;7.484;2022-11-24T08:23:29;21.48;;;5.30;;
19219;SDS011;9744;49.364;7.484;2022-11-24T08:25:56;31.65;;;5.03;;
19219;SDS011;9744;49.364;7.484;2022-11-24T08:28:30;34.35;;;5.13;;
19219;SDS011;9744;49.364;7.484;2022-11-24T08:31:01;26.58;;;4.13;;
19219;SDS011;9744;49.364;7.484;2022-11-24T08:33:29;33.40;;;4.80;;
19219;SDS011;9744;49.364;7.484;2022-11-24T08:36:01;39.42;;;5.80;;
19219;SDS011;9744;49.364;7.484;2022-11-24T08:38:29;29.92;;;5.53;;
19219;SDS011;9744;49.364;7.484;2022-11-24T08:40:58;30.55;;;4.38;;
19219;SDS011;9744;49.364;7.484;2022-11-24T08:43:27;32.45;;;4.78;;
19219;SDS011;9744;49.364;7.484;2022-11-24T08:45:57;31.63;;;4.18;;
19219;SDS011;9744;49.364;7.484;2022-11-24T08:48:25;20.63;;;4.25;;
19219;SDS011;9744;49.364;7.484;2022-11-24T08:50:52;37.80;;;5.10;;
19219;SDS011;9744;49.364;7.484;2022-11-24T08:53:19;38.97;;;4.82;;
19219;SDS011;9744;49.364;7.484;2022-11-24T08:55:47;27.02;;;4.13;;
19219;SDS011;9744;49.364;7.484;2022-11-24T08:58:14;27.27;;;4.60;;
19219;SDS011;9744;49.364;7.484;2022-11-24T09:00:42;32.17;;;4.70;;
19219;SDS011;9744;49.364;7.484;2022-11-24T09:03:10;34.58;;;4.10;;
19219;SDS011;9744;49.364;7.484;2022-11-24T09:05:38;38.42;;;4.95;;
19219;SDS011;9744;49.364;7.484;2022-11-24T09:08:05;29.05;;;3.95;;
19219;SDS011;9744;49.364;7.484;2022-11-24T09:10:32;38.50;;;5.25;;
19219;SDS011;9744;49.364;7.484;2022-11-24T09:12:59;26.77;;;3.97;;
19219;SDS011;9744;49.364;7.484;2022-11-24T09:15:26;31.70;;;3.85;;
19219;SDS011;9744;49.364;7.484;2022-11-24T09:17:54;30.13;;;4.45;;
19219;SDS011;9744;49.364;7.484;2022-11-24T09:20:23;23.08;;;3.55;;
19219;SDS011;9744;49.364;7.484;2022-11-24T09:22:51;25.83;;;3.50;;
19219;SDS011;9744;49.364;7.484;2022-11-24T09:25:18;30.23;;;4.40;;
19219;SDS011;9744;49.364;7.484;2022-11-24T09:27:47;31.40;;;3.70;;
19219;SDS011;9744;49.364;7.484;2022-11-24T09:30:15;29.42;;;5.15;;
19219;SDS011;9744;49.364;7.484;2022-11-24T09:32:43;25.77;;;5.45;;
19219;SDS011;9744;49.364;7.484;2022-11-24T09:35:10;29.08;;;3.60;;
19219;SDS011;9744;49.364;7.484;2022-11-24T09:37:38;32.63;;;8.05;;
19219;SDS011;9744;49.364;7.484;2022-11-24T09:40:08;34.72;;;5.78;;
19219;SDS011;9744;49.364;7.484;2022-11-24T09:42:39;26.88;;;3.80;;
19219;SDS011;9744;49.364;7.484;2022-11-24T09:45:15;22.30;;;3.67;;
19219;SDS011;9744;49.364;7.484;2022-11-24T09:47:55;26.77;;;3.90;;
19219;SDS011;9744;49.364;7.484;2022-11-24T09:50:25;20.80;;;3.38;;
19219;SDS011;9744;49.364;7.484;2022-11-24T09:52:57;25.65;;;3.92;;
19219;SDS011;9744;49.364;7.484;2022-11-24T09:55:38;24.83;;;4.55;;
19219;SDS011;9744;49.364;7.484;2022-11-24T09:58:10;20.40;;;4.78;;
19219;SDS011;9744;49.364;7.484;2022-11-24T10:00:42;24.45;;;3.78;;
19219;SDS011;9744;49.364;7.484;2022-11-24T10:03:13;19.83;;;4.03;;
19219;SDS011;9744;49.364;7.484;2022-11-24T10:05:45;22.13;;;3.60;;
19219;SDS011;9744;49.364;7.484;2022-11-24T10:08:21;34.03;;;4.53;;
19219;SDS011;9744;49.364;7.484;2022-11-24T10:10:58;27.95;;;4.40;;
19219;SDS011;9744;49.364;7.484;2022-11-24T10:16:33;29.00;;;4.82;;
19219;SDS011;9744;49.364;7.484;2022-11-24T10:19:09;27.35;;;3.92;;
19219;SDS011;9744;49.364;7.484;2022-11-24T10:21:49;22.38;;;4.00;;
19219;SDS011;9744;49.364;7.484;2022-11-24T10:24:33;28.48;;;3.83;;
19219;SDS011;9744;49.364;7.484;2022-11-24T10:27:21;26.60;;;4.03;;
19219;SDS011;9744;49.364;7.484;2022-11-24T10:29:53;23.67;;;3.70;;
19219;SDS011;9744;49.364;7.484;2022-11-24T10:32:23;42.17;;;4.68;;
19219;SDS011;9744;49.364;7.484;2022-11-24T10:34:58;20.02;;;3.97;;
19219;SDS011;9744;49.364;7.484;2022-11-24T10:37:39;26.58;;;3.65;;
19219;SDS011;9744;49.364;7.484;2022-11-24T10:40:13;20.95;;;3.30;;
19219;SDS011;9744;49.364;7.484;2022-11-24T10:42:47;29.80;;;5.72;;
19219;SDS011;9744;49.364;7.484;2022-11-24T10:45:17;27.65;;;4.78;;
19219;SDS011;9744;49.364;7.484;2022-11-24T10:47:46;22.52;;;3.47;;
19219;SDS011;9744;49.364;7.484;2022-11-24T10:50:17;27.30;;;4.95;;
19219;SDS011;9744;49.364;7.484;2022-11-24T10:52:49;25.40;;;3.25;;
19219;SDS011;9744;49.364;7.484;2022-11-24T10:55:24;24.92;;;3.33;;
19219;SDS011;9744;49.364;7.484;2022-11-24T10:57:52;31.85;;;4.60;;
19219;SDS011;9744;49.364;7.484;2022-11-24T11:03:13;28.17;;;4.22;;
19219;SDS011;9744;49.364;7.484;2022-11-24T11:05:43;24.33;;;3.10;;
19219;SDS011;9744;49.364;7.484;2022-11-24T11:08:17;22.80;;;4.07;;
19219;SDS011;9744;49.364;7.484;2022-11-24T11:10:48;24.83;;;4.70;;
19219;SDS011;9744;49.364;7.484;2022-11-24T11:13:20;25.02;;;4.05;;
19219;SDS011;9744;49.364;7.484;2022-11-24T11:15:49;24.02;;;3.00;;
19219;SDS011;9744;49.364;7.484;2022-11-24T11:18:17;21.80;;;3.80;;
19219;SDS011;9744;49.364;7.484;2022-11-24T11:20:49;21.48;;;2.78;;
19219;SDS011;9744;49.364;7.484;2022-11-24T11:23:22;28.20;;;3.72;;
19219;SDS011;9744;49.364;7.484;2022-11-24T11:29:02;19.98;;;3.13;;
19219;SDS011;9744;49.364;7.484;2022-11-24T11:31:39;24.42;;;3.08;;
19219;SDS011;9744;49.364;7.484;2022-11-24T11:34:17;26.85;;;4.80;;
19219;SDS011;9744;49.364;7.484;2022-11-24T11:36:45;23.77;;;3.63;;
19219;SDS011;9744;49.364;7.484;2022-11-24T11:39:18;17.50;;;3.35;;
19219;SDS011;9744;49.364;7.484;2022-11-24T11:41:51;24.20;;;3.80;;
19219;SDS011;9744;49.364;7.484;2022-11-24T11:44:31;19.00;;;3.13;;
19219;SDS011;9744;49.364;7.484;2022-11-24T11:47:07;23.73;;;3.65;;
19219;SDS011;9744;49.364;7.484;2022-11-24T11:49:39;19.75;;;3.63;;
19219;SDS011;9744;49.364;7.484;2022-11-24T11:52:22;15.60;;;2.92;;
19219;SDS011;9744;49.364;7.484;2022-11-24T11:55:30;26.30;;;3.97;;
19219;SDS011;9744;49.364;7.484;2022-11-24T11:58:10;25.10;;;4.20;;
19219;SDS011;9744;49.364;7.484;2022-11-24T12:00:51;23.98;;;3.00;;
19219;SDS011;9744;49.364;7.484;2022-11-24T12:03:38;25.25;;;2.95;;
19219;SDS011;9744;49.364;7.484;2022-11-24T12:06:19;16.60;;;2.53;;
19219;SDS011;9744;49.364;7.484;2022-11-24T12:08:56;22.92;;;4.22;;
19219;SDS011;9744;49.364;7.484;2022-11-24T12:11:31;25.00;;;4.60;;
19219;SDS011;9744;49.364;7.484;2022-11-24T12:14:13;21.90;;;3.38;;
19219;SDS011;9744;49.364;7.484;2022-11-24T12:16:47;17.23;;;3.00;;
19219;SDS011;9744;49.364;7.484;2022-11-24T12:19:27;15.48;;;2.50;;
19219;SDS011;9744;49.364;7.484;2022-11-24T12:22:08;17.15;;;2.50;;
19219;SDS011;9744;49.364;7.484;2022-11-24T12:24:44;19.20;;;2.88;;
19219;SDS011;9744;49.364;7.484;2022-11-24T12:27:19;17.98;;;2.60;;
19219;SDS011;9744;49.364;7.484;2022-11-24T12:30:03;18.10;;;2.90;;
19219;SDS011;9744;49.364;7.484;2022-11-24T12:32:52;19.13;;;2.75;;
19219;SDS011;9744;49.364;7.484;2022-11-24T12:35:51;22.65;;;3.05;;
19219;SDS011;9744;49.364;7.484;2022-11-24T12:38:31;17.05;;;2.75;;
19219;SDS011;9744;49.364;7.484;2022-11-24T12:43:56;20.63;;;2.88;;
19219;SDS011;9744;49.364;7.484;2022-11-24T12:46:30;21.98;;;2.55;;
19219;SDS011;9744;49.364;7.484;2022-11-24T12:49:07;16.80;;;2.58;;
19219;SDS011;9744;49.364;7.484;2022-11-24T12:51:43;17.85;;;3.17;;
19219;SDS011;9744;49.364;7.484;2022-11-24T12:54:16;24.38;;;2.55;;
19219;SDS011;9744;49.364;7.484;2022-11-24T12:56:46;22.88;;;2.75;;
19219;SDS011;9744;49.364;7.484;2022-11-24T12:59:20;22.48;;;4.22;;
19219;SDS011;9744;49.364;7.484;2022-11-24T13:02:01;20.52;;;2.25;;
19219;SDS011;9744;49.364;7.484;2022-11-24T13:04:41;13.52;;;2.30;;
19219;SDS011;9744;49.364;7.484;2022-11-24T13:07:12;17.67;;;2.13;;
19219;SDS011;9744;49.364;7.484;2022-11-24T13:12:51;20.33;;;2.75;;
19219;SDS011;9744;49.364;7.484;2022-11-24T13:15:19;14.75;;;2.45;;
19219;SDS011;9744;49.364;7.484;2022-11-24T13:17:47;18.20;;;3.03;;
19219;SDS011;9744;49.364;7.484;2022-11-24T13:20:15;20.45;;;3.03;;
19219;SDS011;9744;49.364;7.484;2022-11-24T13:22:47;28.25;;;7.55;;
19219;SDS011;9744;49.364;7.484;2022-11-24T13:25:19;27.58;;;3.72;;
19219;SDS011;9744;49.364;7.484;2022-11-24T13:27:48;26.13;;;3.85;;
19219;SDS011;9744;49.364;7.484;2022-11-24T13:38:56;19.88;;;2.67;;
19219;SDS011;9744;49.364;7.484;2022-11-24T13:44:45;31.50;;;4.72;;
19219;SDS011;9744;49.364;7.484;2022-11-24T13:47:29;21.60;;;2.70;;
19219;SDS011;9744;49.364;7.484;2022-11-24T13:50:23;11.93;;;2.33;;
19219;SDS011;9744;49.364;7.484;2022-11-24T13:53:06;22.23;;;2.65;;
19219;SDS011;9744;49.364;7.484;2022-11-24T13:55:39;21.35;;;2.53;;
19219;SDS011;9744;49.364;7.484;2022-11-24T13:58:23;17.38;;;2.55;;
19219;SDS011;9744;49.364;7.484;2022-11-24T14:00:59;21.95;;;2.65;;
19219;SDS011;9744;49.364;7.484;2022-11-24T14:03:31;16.23;;;2.47;;
19219;SDS011;9744;49.364;7.484;2022-11-24T14:06:03;16.33;;;2.80;;
19219;SDS011;9744;49.364;7.484;2022-11-24T14:08:31;14.25;;;3.80;;
19219;SDS011;9744;49.364;7.484;2022-11-24T14:11:00;18.77;;;3.40;;
19219;SDS011;9744;49.364;7.484;2022-11-24T14:13:36;15.30;;;3.15;;
19219;SDS011;9744;49.364;7.484;2022-11-24T14:16:04;14.57;;;2.40;;
19219;SDS011;9744;49.364;7.484;2022-11-24T14:18:39;15.15;;;2.40;;
19219;SDS011;9744;49.364;7.484;2022-11-24T14:21:19;20.80;;;2.45;;
19219;SDS011;9744;49.364;7.484;2022-11-24T14:23:52;24.35;;;4.07;;
19219;SDS011;9744;49.364;7.484;2022-11-24T14:26:21;13.20;;;2.13;;
19219;SDS011;9744;49.364;7.484;2022-11-24T14:28:50;18.23;;;2.95;;
19219;SDS011;9744;49.364;7.484;2022-11-24T14:31:20;24.00;;;4.18;;
19219;SDS011;9744;49.364;7.484;2022-11-24T14:33:49;23.83;;;3.78;;
19219;SDS011;9744;49.364;7.484;2022-11-24T14:36:33;18.48;;;2.38;;
19219;SDS011;9744;49.364;7.484;2022-11-24T14:39:00;13.52;;;3.03;;
19219;SDS011;9744;49.364;7.484;2022-11-24T14:41:27;21.83;;;4.00;;
19219;SDS011;9744;49.364;7.484;2022-11-24T14:44:04;17.45;;;3.58;;
19219;SDS011;9744;49.364;7.484;2022-11-24T14:46:37;12.27;;;2.22;;
19219;SDS011;9744;49.364;7.484;2022-11-24T14:49:05;15.10;;;2.65;;
19219;SDS011;9744;49.364;7.484;2022-11-24T14:51:34;22.23;;;3.00;;
19219;SDS011;9744;49.364;7.484;2022-11-24T14:54:03;14.65;;;2.58;;
19219;SDS011;9744;49.364;7.484;2022-11-24T14:56:33;23.63;;;5.45;;
19219;SDS011;9744;49.364;7.484;2022-11-24T14:59:01;20.88;;;3.22;;
19219;SDS011;9744;49.364;7.484;2022-11-24T15:01:31;23.48;;;2.80;;
19219;SDS011;9744;49.364;7.484;2022-11-24T15:04:12;15.00;;;2.83;;
19219;SDS011;9744;49.364;7.484;2022-11-24T15:06:46;15.68;;;2.85;;
19219;SDS011;9744;49.364;7.484;2022-11-24T15:09:18;20.17;;;2.63;;
19219;SDS011;9744;49.364;7.484;2022-11-24T15:11:47;25.65;;;4.97;;
19219;SDS011;9744;49.364;7.484;2022-11-24T15:14:24;16.38;;;4.65;;
19219;SDS011;9744;49.364;7.484;2022-11-24T15:17:00;16.13;;;2.85;;
19219;SDS011;9744;49.364;7.484;2022-11-24T15:19:29;19.13;;;4.60;;
19219;SDS011;9744;49.364;7.484;2022-11-24T15:21:59;22.10;;;3.85;;
19219;SDS011;9744;49.364;7.484;2022-11-24T15:24:49;17.38;;;3.47;;
19219;SDS011;9744;49.364;7.484;2022-11-24T15:27:19;15.20;;;3.10;;
19219;SDS011;9744;49.364;7.484;2022-11-24T15:29:46;12.90;;;2.92;;
19219;SDS011;9744;49.364;7.484;2022-11-24T15:32:13;18.38;;;3.22;;